Time,TemperatureF,DewpointF,PressureIn,WindDirection,WindDirectionDegrees,WindSpeedMPH,WindSpeedGustMPH,Humidity,HourlyPrecipIn,Conditions,Clouds,dailyrainin,SoftwareType,DateUTC
2013-02-14 00:03:00,25.2,7.0,30.21,NW,313,1.3,7.5,45,0.00,,,0.00,CWS Microserver 1.4,2013-02-14 07:03:00,
2013-02-14 00:08:00,24.8,6.8,30.21,NNE,17,2.5,7.5,45,0.00,,,0.00,CWS Microserver 1.4,2013-02-14 07:08:00,
2013-02-14 00:13:00,24.7,7.3,30.21,North,2,5.3,7.8,46,0.00,,,0.00,CWS Microserver 1.4,2013-02-14 07:13:00,
2013-02-14 00:18:00,24.3,6.9,30.21,WSW,244,5.4,9.1,46,0.00,,,0.00,CWS Microserver 1.4,2013-02-14 07:18:00,
2013-02-14 00:27:00,25.6,6.9,30.21,WSW,246,4.4,9.8,44,0.00,,,0.00,CWS Microserver 1.4,2013-02-14 07:27:00,
2013-02-14 00:36:00,25.9,6.6,30.21,WSW,247,8.0,9.0,43,0.00,,,0.00,CWS Microserver 1.4,2013-02-14 07:36:00,
2013-02-14 00:41:00,26.3,7.0,30.21,WSW,244,3.5,10.3,43,0.00,,,0.00,CWS Microserver 1.4,2013-02-14 07:41:00,
2013-02-14 00:46:00,26.3,6.6,30.21,NNW,327,8.2,10.3,42,0.00,,,0.00,CWS Microserver 1.4,2013-02-14 07:46:00,
2013-02-14 00:51:00,26.3,6.7,30.21,WNW,303,5.2,9.4,42,0.00,,,0.00,CWS Microserver 1.4,2013-02-14 07:51:00,
2013-02-14 00:56:00,26.1,6.7,30.21,West,268,3.8,9.0,43,0.00,,,0.00,CWS Microserver 1.4,2013-02-14 07:56:00,
2013-02-14 01:01:00,26.3,6.5,30.21,NNW,335,9.0,9.3,42,0.00,,,0.00,CWS Microserver 1.4,2013-02-14 08:01:00,
2013-02-14 01:06:00,26.6,6.7,30.21,NNW,331,4.6,9.3,42,0.00,,,0.00,CWS Microserver 1.4,2013-02-14 08:06:00,
2013-02-14 01:13:00,26.6,6.9,30.21,East,101,5.1,7.3,42,0.00,,,0.00,CWS Microserver 1.4,2013-02-14 08:13:00,
2013-02-14 01:18:00,26.5,7.0,30.21,SW,229,0.9,7.3,42,0.00,,,0.00,CWS Microserver 1.4,2013-02-14 08:18:00,
2013-02-14 01:23:00,26.6,6.9,30.21,ESE,120,3.1,8.7,42,0.00,,,0.00,CWS Microserver 1.4,2013-02-14 08:23:00,
2013-02-14 01:28:00,26.5,7.0,30.21,NNW,335,2.7,8.7,43,0.00,,,0.00,CWS Microserver 1.4,2013-02-14 08:28:00,
2013-02-14 01:33:00,26.8,7.1,30.21,ESE,119,2.6,7.6,42,0.00,,,0.00,CWS Microserver 1.4,2013-02-14 08:33:00,
2013-02-14 01:38:00,26.6,7.1,30.21,NNE,28,1.3,8.0,43,0.00,,,0.00,CWS Microserver 1.4,2013-02-14 08:38:00,
2013-02-14 01:43:00,26.3,7.1,30.21,NE,40,4.2,8.0,43,0.00,,,0.00,CWS Microserver 1.4,2013-02-14 08:43:00,
2013-02-14 01:48:00,25.9,7.0,30.21,NE,47,1.7,7.7,44,0.00,,,0.00,CWS Microserver 1.4,2013-02-14 08:48:00,
2013-02-14 01:53:00,25.9,7.4,30.21,East,89,3.3,7.4,44,0.00,,,0.00,CWS Microserver 1.4,2013-02-14 08:53:00,
2013-02-14 01:58:00,25.7,7.5,30.21,ESE,110,1.8,7.4,45,0.00,,,0.00,CWS Microserver 1.4,2013-02-14 08:58:00,
2013-02-14 02:03:00,25.4,7.7,30.21,ESE,107,3.9,5.4,46,0.00,,,0.00,CWS Microserver 1.4,2013-02-14 09:03:00,
2013-02-14 02:08:00,24.8,7.2,30.21,SW,216,2.1,5.1,46,0.00,,,0.00,CWS Microserver 1.4,2013-02-14 09:08:00,
2013-02-14 02:16:00,24.5,7.3,30.21,NE,44,1.0,4.6,47,0.00,,,0.00,CWS Microserver 1.4,2013-02-14 09:16:00,
2013-02-14 02:21:00,24.3,7.3,30.21,ENE,65,2.2,5.8,47,0.00,,,0.00,CWS Microserver 1.4,2013-02-14 09:21:00,
2013-02-14 02:26:00,24.5,7.5,30.21,NE,38,4.9,6.5,47,0.00,,,0.00,CWS Microserver 1.4,2013-02-14 09:26:00,
2013-02-14 02:31:00,25.0,7.7,30.21,SW,230,2.9,7.1,47,0.00,,,0.00,CWS Microserver 1.4,2013-02-14 09:31:00,
2013-02-14 02:39:00,24.8,7.2,30.21,ENE,77,3.6,7.4,46,0.00,,,0.00,CWS Microserver 1.4,2013-02-14 09:39:00,
2013-02-14 02:49:00,25.4,7.1,30.21,East,92,0.6,5.9,45,0.00,,,0.00,CWS Microserver 1.4,2013-02-14 09:49:00,
2013-02-14 02:54:00,24.8,7.0,30.21,ENE,74,3.1,5.9,46,0.00,,,0.00,CWS Microserver 1.4,2013-02-14 09:54:00,
2013-02-14 02:59:00,24.8,7.2,30.21,ENE,71,0.8,5.9,46,0.00,,,0.00,CWS Microserver 1.4,2013-02-14 09:59:00,
2013-02-14 03:04:00,24.5,6.9,30.21,South,170,2.2,6.9,46,0.00,,,0.00,CWS Microserver 1.4,2013-02-14 10:04:00,
2013-02-14 03:09:00,24.1,7.1,30.21,East,86,1.0,6.9,47,0.00,,,0.00,CWS Microserver 1.4,2013-02-14 10:09:00,
2013-02-14 03:14:00,23.4,7.2,30.20,North,7,2.1,4.4,49,0.00,,,0.00,CWS Microserver 1.4,2013-02-14 10:14:00,
2013-02-14 03:19:00,22.9,7.7,30.20,ESE,110,4.2,5.2,51,0.00,,,0.00,CWS Microserver 1.4,2013-02-14 10:19:00,
2013-02-14 03:26:00,22.7,7.5,30.20,NNW,330,1.7,4.1,51,0.00,,,0.00,CWS Microserver 1.4,2013-02-14 10:26:00,
2013-02-14 03:31:00,22.5,7.6,30.19,NW,314,1.9,4.1,52,0.00,,,0.00,CWS Microserver 1.4,2013-02-14 10:31:00,
2013-02-14 03:36:00,22.1,7.6,30.19,WNW,293,2.9,4.1,53,0.00,,,0.00,CWS Microserver 1.4,2013-02-14 10:36:00,
2013-02-14 03:46:00,22.5,7.7,30.19,WSW,251,3.4,4.9,52,0.00,,,0.00,CWS Microserver 1.4,2013-02-14 10:46:00,
2013-02-14 03:51:00,22.9,8.9,30.19,SW,220,2.1,4.9,54,0.00,,,0.00,CWS Microserver 1.4,2013-02-14 10:51:00,
2013-02-14 03:56:00,22.9,7.9,30.19,WSW,244,2.5,5.0,52,0.00,,,0.00,CWS Microserver 1.4,2013-02-14 10:56:00,
2013-02-14 04:01:00,22.3,7.5,30.19,SW,225,0.9,5.0,52,0.00,,,0.00,CWS Microserver 1.4,2013-02-14 11:01:00,
2013-02-14 04:06:00,22.0,8.1,30.19,North,350,2.0,4.2,54,0.00,,,0.00,CWS Microserver 1.4,2013-02-14 11:06:00,
2013-02-14 04:11:00,22.0,8.1,30.19,NNE,33,1.6,4.2,54,0.00,,,0.00,CWS Microserver 1.4,2013-02-14 11:11:00,
2013-02-14 04:22:00,21.6,7.5,30.19,NNW,333,0.5,4.0,53,0.00,,,0.00,CWS Microserver 1.4,2013-02-14 11:22:00,
2013-02-14 04:27:00,21.6,8.0,30.19,WNW,286,2.9,4.0,55,0.00,,,0.00,CWS Microserver 1.4,2013-02-14 11:27:00,
2013-02-14 04:32:00,21.6,7.6,30.19,SW,232,2.6,4.8,54,0.00,,,0.00,CWS Microserver 1.4,2013-02-14 11:32:00,
2013-02-14 04:37:00,21.1,7.8,30.19,WSW,251,2.0,4.8,55,0.00,,,0.00,CWS Microserver 1.4,2013-02-14 11:37:00,
2013-02-14 04:46:00,20.2,7.2,30.19,SE,124,1.5,4.8,56,0.00,,,0.00,CWS Microserver 1.4,2013-02-14 11:46:00,
2013-02-14 04:51:00,20.0,7.8,30.19,SW,225,3.3,4.8,58,0.00,,,0.00,CWS Microserver 1.4,2013-02-14 11:51:00,
2013-02-14 05:02:00,21.2,8.2,30.20,SW,232,1.1,7.3,56,0.00,,,0.00,CWS Microserver 1.4,2013-02-14 12:02:00,
2013-02-14 05:22:00,20.2,8.7,30.19,WSW,256,2.2,4.0,60,0.00,,,0.00,CWS Microserver 1.4,2013-02-14 12:22:00,
2013-02-14 05:27:00,19.3,8.6,30.19,NW,320,1.5,4.0,62,0.00,,,0.00,CWS Microserver 1.4,2013-02-14 12:27:00,
2013-02-14 05:32:00,19.4,8.7,30.19,WNW,295,0.8,7.0,62,0.00,,,0.00,CWS Microserver 1.4,2013-02-14 12:32:00,
2013-02-14 05:37:00,19.3,8.7,30.19,South,187,0.9,7.0,62,0.00,,,0.00,CWS Microserver 1.4,2013-02-14 12:37:00,
2013-02-14 05:45:00,19.3,8.6,30.20,WNW,287,5.2,6.3,62,0.00,,,0.00,CWS Microserver 1.4,2013-02-14 12:45:00,
2013-02-14 05:50:00,19.8,8.7,30.20,West,271,1.7,6.3,61,0.00,,,0.00,CWS Microserver 1.4,2013-02-14 12:50:00,
2013-02-14 05:55:00,20.2,8.7,30.21,WNW,296,0.6,6.1,60,0.00,,,0.00,CWS Microserver 1.4,2013-02-14 12:55:00,
2013-02-14 06:00:00,21.4,9.0,30.21,East,88,4.0,5.3,58,0.00,,,0.00,CWS Microserver 1.4,2013-02-14 13:00:00,
2013-02-14 06:05:00,21.8,9.2,30.21,NW,308,3.5,7.0,57,0.00,,,0.00,CWS Microserver 1.4,2013-02-14 13:05:00,
2013-02-14 06:10:00,22.0,9.4,30.21,WSW,245,6.1,7.3,57,0.00,,,0.00,CWS Microserver 1.4,2013-02-14 13:10:00,
2013-02-14 06:15:00,23.0,8.9,30.21,NNW,332,5.4,11.1,54,0.00,,,0.00,CWS Microserver 1.4,2013-02-14 13:15:00,
2013-02-14 06:20:00,23.9,8.4,30.21,North,354,3.1,11.1,51,0.00,,,0.00,CWS Microserver 1.4,2013-02-14 13:20:00,
2013-02-14 06:28:00,24.7,8.0,30.21,ENE,78,4.2,11.9,48,0.00,,,0.00,CWS Microserver 1.4,2013-02-14 13:28:00,
2013-02-14 06:33:00,24.5,8.0,30.21,NW,321,1.6,11.9,48,0.00,,,0.00,CWS Microserver 1.4,2013-02-14 13:33:00,
2013-02-14 06:38:00,24.3,8.0,30.21,ESE,118,6.3,8.0,49,0.00,,,0.00,CWS Microserver 1.4,2013-02-14 13:38:00,
2013-02-14 06:43:00,24.3,7.9,30.21,North,7,2.6,9.6,49,0.00,,,0.00,CWS Microserver 1.4,2013-02-14 13:43:00,
2013-02-14 06:55:00,24.7,8.5,30.20,SW,234,6.9,11.9,49,0.00,,,0.00,CWS Microserver 1.4,2013-02-14 13:55:00,
2013-02-14 07:00:00,24.7,8.4,30.20,SE,129,7.2,12.6,49,0.00,,,0.00,CWS Microserver 1.4,2013-02-14 14:00:00,
2013-02-14 07:05:00,24.8,8.6,30.21,South,189,7.1,12.6,49,0.00,,,0.00,CWS Microserver 1.4,2013-02-14 14:05:00,
2013-02-14 07:10:00,24.5,8.7,30.21,ESE,123,3.8,14.5,50,0.00,,,0.00,CWS Microserver 1.4,2013-02-14 14:10:00,
2013-02-14 07:18:00,24.7,8.8,30.21,North,354,4.0,14.9,50,0.00,,,0.00,CWS Microserver 1.4,2013-02-14 14:18:00,
2013-02-14 07:28:00,24.7,8.3,30.21,SW,234,8.4,14.9,49,0.00,,,0.00,CWS Microserver 1.4,2013-02-14 14:28:00,
2013-02-14 07:38:00,25.0,8.0,30.21,NE,35,8.7,12.2,47,0.00,,,0.00,CWS Microserver 1.4,2013-02-14 14:38:00,
2013-02-14 07:51:00,26.1,8.8,30.22,NW,310,3.3,8.7,47,0.00,,,0.00,CWS Microserver 1.4,2013-02-14 14:51:00,
2013-02-14 07:56:00,26.6,8.2,30.22,WNW,288,2.0,8.7,45,0.00,,,0.00,CWS Microserver 1.4,2013-02-14 14:56:00,
2013-02-14 08:01:00,27.2,8.4,30.22,SE,131,0.7,10.8,44,0.00,,,0.00,CWS Microserver 1.4,2013-02-14 15:01:00,
2013-02-14 08:08:00,27.4,9.6,30.24,WNW,291,0.4,8.9,46,0.00,,,0.00,CWS Microserver 1.4,2013-02-14 15:08:00,
2013-02-14 08:13:00,27.2,9.9,30.24,SE,126,3.7,8.9,47,0.00,,,0.00,CWS Microserver 1.4,2013-02-14 15:13:00,
2013-02-14 08:18:00,26.8,9.3,30.24,SE,132,5.5,11.0,47,0.00,,,0.00,CWS Microserver 1.4,2013-02-14 15:18:00,
2013-02-14 08:24:00,27.2,9.7,30.24,NNW,339,2.1,5.2,47,0.00,,,0.00,CWS Microserver 1.4,2013-02-14 15:24:00,
2013-02-14 08:34:00,26.6,9.6,30.25,SSW,210,5.1,13.0,48,0.00,,,0.00,CWS Microserver 1.4,2013-02-14 15:34:00,
2013-02-14 08:48:00,27.0,10.2,30.24,South,189,2.4,8.0,48,0.00,,,0.00,CWS Microserver 1.4,2013-02-14 15:48:00,
2013-02-14 08:57:00,28.1,11.3,30.25,South,185,0.9,7.2,48,0.00,,,0.00,CWS Microserver 1.4,2013-02-14 15:57:00,
2013-02-14 09:02:00,28.4,10.0,30.25,SW,231,0.8,7.2,45,0.00,,,0.00,CWS Microserver 1.4,2013-02-14 16:02:00,
2013-02-14 09:07:00,28.3,10.1,30.25,NNW,336,6.4,16.4,45,0.00,,,0.00,CWS Microserver 1.4,2013-02-14 16:07:00,
2013-02-14 09:12:00,28.1,10.0,30.25,NW,313,7.5,16.4,46,0.00,,,0.00,CWS Microserver 1.4,2013-02-14 16:12:00,
2013-02-14 09:17:00,28.3,10.2,30.25,West,277,2.7,15.9,46,0.00,,,0.00,CWS Microserver 1.4,2013-02-14 16:17:00,
2013-02-14 09:22:00,28.1,10.3,30.26,South,179,1.4,18.9,46,0.00,,,0.00,CWS Microserver 1.4,2013-02-14 16:22:00,
2013-02-14 09:27:00,27.9,9.7,30.27,West,279,6.9,23.0,45,0.00,,,0.00,CWS Microserver 1.4,2013-02-14 16:27:00,
2013-02-14 09:32:00,27.9,9.7,30.27,SW,226,4.2,23.0,45,0.00,,,0.00,CWS Microserver 1.4,2013-02-14 16:32:00,
2013-02-14 09:37:00,28.1,9.9,30.27,NW,322,0.9,17.1,45,0.00,,,0.00,CWS Microserver 1.4,2013-02-14 16:37:00,
2013-02-14 09:42:00,28.3,10.2,30.27,WNW,289,1.0,14.0,46,0.00,,,0.00,CWS Microserver 1.4,2013-02-14 16:42:00,
2013-02-14 09:47:00,28.6,10.3,30.27,SW,224,6.2,13.5,45,0.00,,,0.00,CWS Microserver 1.4,2013-02-14 16:47:00,
2013-02-14 09:54:00,28.8,10.4,30.27,NW,321,5.3,11.7,45,0.00,,,0.00,CWS Microserver 1.4,2013-02-14 16:54:00,
2013-02-14 10:04:00,29.7,10.7,30.27,NW,305,2.9,11.0,44,0.00,,,0.00,CWS Microserver 1.4,2013-02-14 17:04:00,
2013-02-14 10:09:00,29.5,10.4,30.27,NW,304,7.9,11.9,44,0.00,,,0.00,CWS Microserver 1.4,2013-02-14 17:09:00,
2013-02-14 10:14:00,30.2,10.2,30.27,NW,319,5.5,11.9,42,0.00,,,0.00,CWS Microserver 1.4,2013-02-14 17:14:00,
2013-02-14 10:19:00,29.3,10.5,30.27,NW,322,6.9,15.9,44,0.00,,,0.00,CWS Microserver 1.4,2013-02-14 17:19:00,
2013-02-14 10:27:00,29.7,11.6,30.27,NNW,329,6.1,13.0,46,0.00,,,0.00,CWS Microserver 1.4,2013-02-14 17:27:00,
2013-02-14 10:40:00,28.6,11.4,30.28,SSE,155,2.4,12.5,48,0.00,,,0.00,CWS Microserver 1.4,2013-02-14 17:40:00,
2013-02-14 10:45:00,29.2,11.6,30.28,SSW,210,5.3,12.5,47,0.00,,,0.00,CWS Microserver 1.4,2013-02-14 17:45:00,
2013-02-14 10:50:00,29.3,12.0,30.28,SW,228,1.4,10.4,47,0.00,,,0.00,CWS Microserver 1.4,2013-02-14 17:50:00,
2013-02-14 10:55:00,28.6,10.7,30.29,WSW,251,4.4,10.4,46,0.00,,,0.00,CWS Microserver 1.4,2013-02-14 17:55:00,
2013-02-14 11:07:00,28.1,11.1,30.29,NW,314,4.4,11.4,48,0.00,,,0.00,CWS Microserver 1.4,2013-02-14 18:07:00,
2013-02-14 11:12:00,27.9,11.4,30.28,West,270,2.0,11.4,49,0.00,,,0.00,CWS Microserver 1.4,2013-02-14 18:12:00,
2013-02-14 11:17:00,28.1,11.2,30.29,East,84,2.0,8.5,48,0.00,,,0.00,CWS Microserver 1.4,2013-02-14 18:17:00,
2013-02-14 11:22:00,28.3,10.7,30.29,WSW,241,8.1,12.1,47,0.00,,,0.00,CWS Microserver 1.4,2013-02-14 18:22:00,
2013-02-14 11:27:00,28.8,10.9,30.29,West,268,5.0,12.7,46,0.00,,,0.00,CWS Microserver 1.4,2013-02-14 18:27:00,
2013-02-14 11:37:00,29.2,9.4,30.29,North,352,4.2,14.3,42,0.00,,,0.00,CWS Microserver 1.4,2013-02-14 18:37:00,
2013-02-14 11:42:00,29.3,9.1,30.29,SW,231,7.3,14.3,42,0.00,,,0.00,CWS Microserver 1.4,2013-02-14 18:42:00,
2013-02-14 11:47:00,29.7,8.9,30.29,WNW,302,7.9,13.4,41,0.00,,,0.00,CWS Microserver 1.4,2013-02-14 18:47:00,
2013-02-14 11:52:00,29.9,8.4,30.29,East,101,5.3,12.9,39,0.00,,,0.00,CWS Microserver 1.4,2013-02-14 18:52:00,
2013-02-14 11:57:00,29.9,8.2,30.29,NNW,332,12.7,14.6,39,0.00,,,0.00,CWS Microserver 1.4,2013-02-14 18:57:00,
2013-02-14 12:02:00,29.3,9.3,30.29,SW,227,6.6,18.3,42,0.00,,,0.00,CWS Microserver 1.4,2013-02-14 19:02:00,
2013-02-14 12:07:00,30.4,9.9,30.29,SW,235,2.5,18.3,41,0.00,,,0.00,CWS Microserver 1.4,2013-02-14 19:07:00,
2013-02-14 12:12:00,30.1,8.2,30.29,WSW,242,0.5,17.1,39,0.00,,,0.00,CWS Microserver 1.4,2013-02-14 19:12:00,
2013-02-14 12:17:00,30.4,7.7,30.29,NW,313,5.8,17.1,37,0.00,,,0.00,CWS Microserver 1.4,2013-02-14 19:17:00,
2013-02-14 12:22:00,30.2,7.5,30.29,NE,51,2.9,16.7,37,0.00,,,0.00,CWS Microserver 1.4,2013-02-14 19:22:00,
2013-02-14 12:27:00,25.4,13.1,30.29,East,81,12.0,16.7,59,0.00,,,0.00,CWS Microserver 1.4,2013-02-14 19:27:00,
2013-02-14 12:32:00,23.4,13.8,30.29,ESE,106,9.9,19.2,66,0.00,,,0.00,CWS Microserver 1.4,2013-02-14 19:32:00,
2013-02-14 12:37:00,22.3,13.5,30.30,East,83,5.5,19.8,68,0.00,,,0.00,CWS Microserver 1.4,2013-02-14 19:37:00,
2013-02-14 12:42:00,22.3,13.5,30.29,SW,220,9.6,19.8,68,0.00,,,0.00,CWS Microserver 1.4,2013-02-14 19:42:00,
2013-02-14 12:47:00,25.6,13.5,30.29,ESE,112,18.3,19.6,59,0.00,,,0.00,CWS Microserver 1.4,2013-02-14 19:47:00,
2013-02-14 12:52:00,26.1,12.7,30.29,ESE,118,11.2,21.7,56,0.00,,,0.00,CWS Microserver 1.4,2013-02-14 19:52:00,
2013-02-14 13:00:00,25.6,6.5,30.29,East,84,12.6,16.2,43,0.00,,,0.00,CWS Microserver 1.4,2013-02-14 20:00:00,
2013-02-14 13:05:00,23.4,13.3,30.29,ESE,109,15.8,16.8,64,0.00,,,0.00,CWS Microserver 1.4,2013-02-14 20:05:00,
2013-02-14 13:10:00,22.0,13.1,30.29,ESE,107,9.3,16.8,68,0.00,,,0.00,CWS Microserver 1.4,2013-02-14 20:10:00,
2013-02-14 13:17:00,20.3,12.8,30.29,ESE,111,7.3,19.4,72,0.00,,,0.00,CWS Microserver 1.4,2013-02-14 20:17:00,
2013-02-14 13:26:00,20.3,13.3,30.30,East,81,6.5,13.0,74,0.00,,,0.00,CWS Microserver 1.4,2013-02-14 20:26:00,
2013-02-14 13:31:00,19.4,13.0,30.30,ESE,102,7.8,18.1,75,0.00,,,0.00,CWS Microserver 1.4,2013-02-14 20:31:00,
2013-02-14 13:36:00,19.1,12.8,30.30,NE,55,4.7,18.5,76,0.00,,,0.00,CWS Microserver 1.4,2013-02-14 20:36:00,
2013-02-14 13:42:00,19.1,13.2,30.31,ENE,69,3.4,18.5,77,0.00,,,0.00,CWS Microserver 1.4,2013-02-14 20:42:00,
2013-02-14 13:53:00,18.5,12.5,30.31,East,101,7.1,13.5,77,0.00,,,0.00,CWS Microserver 1.4,2013-02-14 20:53:00,
2013-02-14 13:58:00,18.4,12.5,30.30,East,93,3.7,16.2,77,0.00,,,0.00,CWS Microserver 1.4,2013-02-14 20:58:00,
2013-02-14 14:03:00,18.5,13.0,30.31,East,84,4.9,17.6,78,0.00,,,0.00,CWS Microserver 1.4,2013-02-14 21:03:00,
2013-02-14 14:13:00,17.8,12.6,30.31,East,82,9.1,15.3,79,0.00,,,0.00,CWS Microserver 1.4,2013-02-14 21:13:00,
2013-02-14 14:18:00,17.3,12.3,30.31,East,93,8.7,17.3,80,0.00,,,0.00,CWS Microserver 1.4,2013-02-14 21:18:00,
2013-02-14 14:23:00,17.3,12.4,30.31,NNE,23,1.0,17.3,80,0.00,,,0.00,CWS Microserver 1.4,2013-02-14 21:23:00,
2013-02-14 14:33:00,17.3,11.6,30.32,ESE,105,12.2,12.2,78,0.00,,,0.00,CWS Microserver 1.4,2013-02-14 21:33:00,
2013-02-14 14:38:00,17.5,11.0,30.32,ESE,112,8.1,12.2,75,0.00,,,0.00,CWS Microserver 1.4,2013-02-14 21:38:00,
2013-02-14 14:43:00,17.5,11.1,30.32,ESE,103,1.4,12.2,75,0.00,,,0.00,CWS Microserver 1.4,2013-02-14 21:43:00,
2013-02-14 14:56:00,17.5,10.8,30.32,East,99,6.8,10.4,74,0.00,,,0.00,CWS Microserver 1.4,2013-02-14 21:56:00,
2013-02-14 15:01:00,17.6,10.7,30.33,ENE,69,7.5,10.4,74,0.00,,,0.00,CWS Microserver 1.4,2013-02-14 22:01:00,
2013-02-14 15:06:00,17.6,11.0,30.33,ENE,69,5.8,9.8,75,0.00,,,0.00,CWS Microserver 1.4,2013-02-14 22:06:00,
2013-02-14 15:11:00,17.5,10.7,30.33,East,98,5.8,10.9,74,0.00,,,0.00,CWS Microserver 1.4,2013-02-14 22:11:00,
2013-02-14 15:16:00,17.5,10.9,30.33,ENE,65,5.1,10.9,74,0.00,,,0.00,CWS Microserver 1.4,2013-02-14 22:16:00,
2013-02-14 15:21:00,17.6,11.1,30.33,NE,52,4.0,10.6,75,0.00,,,0.00,CWS Microserver 1.4,2013-02-14 22:21:00,
2013-02-14 15:32:00,17.5,11.1,30.34,East,84,4.5,8.8,75,0.00,,,0.00,CWS Microserver 1.4,2013-02-14 22:32:00,
2013-02-14 15:37:00,17.1,10.2,30.34,East,95,5.8,10.6,73,0.00,,,0.00,CWS Microserver 1.4,2013-02-14 22:37:00,
2013-02-14 15:42:00,17.1,9.9,30.33,SE,134,1.2,10.6,72,0.00,,,0.00,CWS Microserver 1.4,2013-02-14 22:42:00,
2013-02-14 15:47:00,16.9,9.5,30.34,South,170,3.1,9.7,72,0.00,,,0.00,CWS Microserver 1.4,2013-02-14 22:47:00,
2013-02-14 15:52:00,16.9,10.1,30.33,ESE,105,3.2,7.5,74,0.00,,,0.00,CWS Microserver 1.4,2013-02-14 22:52:00,
2013-02-14 15:57:00,17.1,10.3,30.34,SW,219,0.4,7.5,74,0.00,,,0.00,CWS Microserver 1.4,2013-02-14 22:57:00,
2013-02-14 16:02:00,16.9,9.8,30.33,East,83,3.8,8.9,73,0.00,,,0.00,CWS Microserver 1.4,2013-02-14 23:02:00,
2013-02-14 16:07:00,16.7,9.9,30.34,SE,145,0.7,8.9,74,0.00,,,0.00,CWS Microserver 1.4,2013-02-14 23:07:00,
2013-02-14 16:16:00,16.7,9.7,30.34,ESE,109,5.3,5.7,73,0.00,,,0.00,CWS Microserver 1.4,2013-02-14 23:16:00,
2013-02-14 16:21:00,16.4,9.5,30.34,East,81,2.4,9.4,73,0.00,,,0.00,CWS Microserver 1.4,2013-02-14 23:21:00,
2013-02-14 16:26:00,16.0,9.6,30.34,ESE,119,2.8,9.4,75,0.00,,,0.00,CWS Microserver 1.4,2013-02-14 23:26:00,
2013-02-14 16:32:00,15.8,9.5,30.34,ESE,113,2.4,4.0,75,0.00,,,0.00,CWS Microserver 1.4,2013-02-14 23:32:00,
2013-02-14 16:42:00,16.0,9.4,30.34,ESE,121,3.1,5.4,74,0.00,,,0.00,CWS Microserver 1.4,2013-02-14 23:42:00,
2013-02-14 16:52:00,15.8,9.6,30.34,South,181,1.3,6.7,76,0.00,,,0.00,CWS Microserver 1.4,2013-02-14 23:52:00,
2013-02-14 16:57:00,15.8,9.6,30.34,East,92,4.2,6.7,76,0.00,,,0.00,CWS Microserver 1.4,2013-02-14 23:57:00,
2013-02-14 17:02:00,15.7,9.3,30.34,ESE,102,4.3,7.8,75,0.00,,,0.00,CWS Microserver 1.4,2013-02-15 00:02:00,
2013-02-14 17:07:00,15.7,9.7,30.34,ESE,111,1.9,7.8,76,0.00,,,0.00,CWS Microserver 1.4,2013-02-15 00:07:00,
2013-02-14 17:19:00,15.3,9.3,30.34,South,169,3.3,4.8,76,0.00,,,0.00,CWS Microserver 1.4,2013-02-15 00:19:00,
2013-02-14 17:28:00,15.1,8.8,30.34,East,101,1.6,2.9,75,0.00,,,0.00,CWS Microserver 1.4,2013-02-15 00:28:00,
2013-02-14 17:33:00,15.1,8.8,30.34,SE,146,1.9,3.2,75,0.00,,,0.00,CWS Microserver 1.4,2013-02-15 00:33:00,
2013-02-14 17:38:00,15.1,9.0,30.34,SW,236,0.3,3.2,76,0.00,,,0.00,CWS Microserver 1.4,2013-02-15 00:38:00,
2013-02-14 17:43:00,14.9,8.8,30.34,SSE,163,0.4,4.1,76,0.00,,,0.00,CWS Microserver 1.4,2013-02-15 00:43:00,
2013-02-14 17:52:00,14.8,8.8,30.34,ENE,67,2.2,4.7,76,0.00,,,0.00,CWS Microserver 1.4,2013-02-15 00:52:00,
2013-02-14 18:02:00,14.8,9.2,30.34,SSE,165,2.8,3.9,77,0.00,,,0.00,CWS Microserver 1.4,2013-02-15 01:02:00,
2013-02-14 18:12:00,14.6,9.5,30.34,SE,131,0.9,3.2,79,0.00,,,0.00,CWS Microserver 1.4,2013-02-15 01:12:00,
2013-02-14 18:17:00,14.6,9.8,30.34,SW,215,0.4,3.2,80,0.00,,,0.00,CWS Microserver 1.4,2013-02-15 01:17:00,
2013-02-14 18:22:00,14.6,9.7,30.34,SW,221,1.2,2.5,80,0.00,,,0.00,CWS Microserver 1.4,2013-02-15 01:22:00,
2013-02-14 18:27:00,14.6,9.4,30.34,SSW,196,1.0,2.7,79,0.00,,,0.00,CWS Microserver 1.4,2013-02-15 01:27:00,
2013-02-14 18:32:00,14.6,9.3,30.35,SSW,213,1.0,2.7,79,0.00,,,0.00,CWS Microserver 1.4,2013-02-15 01:32:00,
2013-02-14 18:37:00,14.6,9.4,30.34,ESE,110,1.2,2.3,79,0.00,,,0.00,CWS Microserver 1.4,2013-02-15 01:37:00,
2013-02-14 18:42:00,14.6,9.5,30.35,SE,145,1.6,2.7,79,0.00,,,0.00,CWS Microserver 1.4,2013-02-15 01:42:00,
2013-02-14 18:47:00,14.6,9.4,30.34,NW,310,0.8,4.9,79,0.00,,,0.00,CWS Microserver 1.4,2013-02-15 01:47:00,
2013-02-14 18:52:00,14.6,9.3,30.34,SSW,192,2.3,4.9,78,0.00,,,0.00,CWS Microserver 1.4,2013-02-15 01:52:00,
2013-02-14 19:01:00,14.8,9.4,30.34,SSE,159,1.3,3.5,78,0.00,,,0.00,CWS Microserver 1.4,2013-02-15 02:01:00,
2013-02-14 19:11:00,14.9,9.4,30.34,ESE,122,0.4,2.7,78,0.00,,,0.00,CWS Microserver 1.4,2013-02-15 02:11:00,
2013-02-14 19:21:00,14.8,10.2,30.34,ESE,106,4.5,6.3,81,0.00,,,0.00,CWS Microserver 1.4,2013-02-15 02:21:00,
2013-02-14 19:26:00,14.8,10.5,30.34,East,81,4.2,6.3,82,0.00,,,0.00,CWS Microserver 1.4,2013-02-15 02:26:00,
2013-02-14 19:31:00,14.8,10.3,30.34,ENE,71,2.7,6.0,82,0.00,,,0.00,CWS Microserver 1.4,2013-02-15 02:31:00,
2013-02-14 19:36:00,14.6,10.4,30.34,ESE,117,3.5,5.3,83,0.00,,,0.00,CWS Microserver 1.4,2013-02-15 02:36:00,
2013-02-14 19:41:00,14.4,10.4,30.34,ESE,123,0.5,7.4,83,0.00,,,0.00,CWS Microserver 1.4,2013-02-15 02:41:00,
2013-02-14 19:46:00,14.4,10.3,30.34,East,90,3.1,7.4,83,0.00,,,0.00,CWS Microserver 1.4,2013-02-15 02:46:00,
2013-02-14 19:51:00,14.4,10.4,30.34,ESE,113,3.1,6.9,83,0.00,,,0.00,CWS Microserver 1.4,2013-02-15 02:51:00,
2013-02-14 19:56:00,14.4,10.6,30.34,South,182,0.4,6.9,84,0.00,,,0.00,CWS Microserver 1.4,2013-02-15 02:56:00,
2013-02-14 20:04:00,14.0,10.5,30.33,ENE,71,2.6,5.5,85,0.00,,,0.00,CWS Microserver 1.4,2013-02-15 03:04:00,
2013-02-14 20:09:00,13.9,10.3,30.34,ESE,118,3.0,6.1,85,0.00,,,0.00,CWS Microserver 1.4,2013-02-15 03:09:00,
2013-02-14 20:14:00,13.9,10.3,30.33,East,85,7.4,7.8,85,0.00,,,0.00,CWS Microserver 1.4,2013-02-15 03:14:00,
2013-02-14 20:19:00,13.9,10.3,30.34,East,85,3.0,7.8,85,0.00,,,0.00,CWS Microserver 1.4,2013-02-15 03:19:00,
2013-02-14 20:28:00,13.7,10.2,30.34,SSW,212,0.8,5.3,85,0.00,,,0.00,CWS Microserver 1.4,2013-02-15 03:28:00,
2013-02-14 20:33:00,13.9,10.1,30.34,SE,128,1.8,7.0,84,0.00,,,0.00,CWS Microserver 1.4,2013-02-15 03:33:00,
2013-02-14 20:38:00,13.9,10.2,30.34,NE,50,1.6,7.0,84,0.00,,,0.00,CWS Microserver 1.4,2013-02-15 03:38:00,
2013-02-14 20:43:00,13.9,10.0,30.34,ENE,77,2.8,6.5,84,0.00,,,0.00,CWS Microserver 1.4,2013-02-15 03:43:00,
2013-02-14 20:48:00,13.7,10.0,30.34,ENE,76,3.1,9.3,84,0.00,,,0.00,CWS Microserver 1.4,2013-02-15 03:48:00,
2013-02-14 20:53:00,13.5,9.9,30.35,East,89,5.5,9.3,85,0.00,,,0.00,CWS Microserver 1.4,2013-02-15 03:53:00,
2013-02-14 20:58:00,13.7,9.9,30.34,SW,225,3.9,7.6,84,0.00,,,0.00,CWS Microserver 1.4,2013-02-15 03:58:00,
2013-02-14 21:03:00,13.7,10.0,30.35,SSE,161,1.5,5.8,84,0.00,,,0.00,CWS Microserver 1.4,2013-02-15 04:03:00,
2013-02-14 21:08:00,13.5,9.9,30.34,WSW,239,4.2,7.2,85,0.00,,,0.00,CWS Microserver 1.4,2013-02-15 04:08:00,
2013-02-14 21:13:00,13.5,9.9,30.34,SE,132,3.7,7.2,85,0.00,,,0.00,CWS Microserver 1.4,2013-02-15 04:13:00,
2013-02-14 21:18:00,13.5,10.0,30.34,SSW,212,0.5,5.1,85,0.00,,,0.00,CWS Microserver 1.4,2013-02-15 04:18:00,
2013-02-14 21:23:00,13.5,9.9,30.34,East,97,3.8,5.7,85,0.00,,,0.00,CWS Microserver 1.4,2013-02-15 04:23:00,
2013-02-14 21:28:00,13.5,10.0,30.34,SE,135,0.6,5.8,85,0.00,,,0.00,CWS Microserver 1.4,2013-02-15 04:28:00,
2013-02-14 21:33:00,13.7,10.1,30.34,SE,125,2.2,6.7,85,0.00,,,0.00,CWS Microserver 1.4,2013-02-15 04:33:00,
2013-02-14 21:44:00,13.7,9.9,30.34,ESE,103,1.4,2.0,84,0.00,,,0.00,CWS Microserver 1.4,2013-02-15 04:44:00,
2013-02-14 21:49:00,13.7,9.7,30.34,SE,138,0.2,2.1,83,0.00,,,0.00,CWS Microserver 1.4,2013-02-15 04:49:00,
2013-02-14 21:54:00,13.7,9.7,30.34,SE,140,1.5,2.1,83,0.00,,,0.00,CWS Microserver 1.4,2013-02-15 04:54:00,
2013-02-14 22:01:00,13.9,9.8,30.34,NW,315,1.1,2.6,83,0.00,,,0.00,CWS Microserver 1.4,2013-02-15 05:01:00,
2013-02-14 22:11:00,13.9,9.6,30.33,ENE,69,0.2,1.4,82,0.00,,,0.00,CWS Microserver 1.4,2013-02-15 05:11:00,
2013-02-14 22:16:00,13.9,9.6,30.33,ENE,69,1.7,2.0,82,0.00,,,0.00,CWS Microserver 1.4,2013-02-15 05:16:00,
2013-02-14 22:27:00,14.0,9.6,30.32,ESE,120,1.6,3.2,82,0.00,,,0.00,CWS Microserver 1.4,2013-02-15 05:27:00,
2013-02-14 22:32:00,14.2,9.9,30.32,East,98,3.0,3.3,82,0.00,,,0.00,CWS Microserver 1.4,2013-02-15 05:32:00,
2013-02-14 22:37:00,14.0,9.5,30.32,East,101,2.4,4.6,81,0.00,,,0.00,CWS Microserver 1.4,2013-02-15 05:37:00,
2013-02-14 22:42:00,14.0,9.6,30.32,East,100,0.6,4.8,82,0.00,,,0.00,CWS Microserver 1.4,2013-02-15 05:42:00,
2013-02-14 22:47:00,14.2,9.9,30.32,ESE,114,2.6,4.8,82,0.00,,,0.00,CWS Microserver 1.4,2013-02-15 05:47:00,
2013-02-14 22:52:00,14.2,10.4,30.32,East,95,4.6,6.3,84,0.00,,,0.00,CWS Microserver 1.4,2013-02-15 05:52:00,
2013-02-14 22:57:00,14.9,11.1,30.32,NW,317,2.5,6.3,84,0.00,,,0.00,CWS Microserver 1.4,2013-02-15 05:57:00,
2013-02-14 23:02:00,15.1,11.8,30.32,SW,234,0.4,5.4,86,0.00,,,0.00,CWS Microserver 1.4,2013-02-15 06:02:00,
2013-02-14 23:07:00,15.8,12.3,30.32,SW,217,0.7,5.0,85,0.00,,,0.00,CWS Microserver 1.4,2013-02-15 06:07:00,
2013-02-14 23:12:00,16.2,12.7,30.32,East,98,1.0,5.0,85,0.00,,,0.00,CWS Microserver 1.4,2013-02-15 06:12:00,
2013-02-14 23:17:00,16.9,13.3,30.32,NW,308,3.1,4.2,85,0.00,,,0.00,CWS Microserver 1.4,2013-02-15 06:17:00,
2013-02-14 23:22:00,17.6,13.7,30.32,ESE,122,4.3,5.2,84,0.00,,,0.00,CWS Microserver 1.4,2013-02-15 06:22:00,
2013-02-14 23:27:00,18.7,14.7,30.32,West,270,1.4,5.2,84,0.00,,,0.00,CWS Microserver 1.4,2013-02-15 06:27:00,
2013-02-14 23:32:00,18.9,14.3,30.32,NW,307,3.5,4.8,82,0.00,,,0.00,CWS Microserver 1.4,2013-02-15 06:32:00,
2013-02-14 23:37:00,19.4,14.0,30.32,SSW,195,1.7,7.6,79,0.00,,,0.00,CWS Microserver 1.4,2013-02-15 06:37:00,
2013-02-14 23:42:00,19.8,12.1,30.31,WNW,285,1.3,12.2,71,0.00,,,0.00,CWS Microserver 1.4,2013-02-15 06:42:00,
2013-02-14 23:47:00,20.3,11.5,30.31,SSW,204,2.4,12.2,68,0.00,,,0.00,CWS Microserver 1.4,2013-02-15 06:47:00,
2013-02-14 23:52:00,20.7,11.5,30.31,NNW,340,3.3,10.3,67,0.00,,,0.00,CWS Microserver 1.4,2013-02-15 06:52:00,
2013-02-14 23:57:00,20.9,11.0,30.31,West,263,1.0,10.3,64,0.00,,,0.00,CWS Microserver 1.4,2013-02-15 06:57:00,